Portada
METAR-TAF:

METAR-TAF

Aeropuertos :

Hays, Kansas, Estados Unidos

latitud: 38-51N, longitud: 099-16W, altitud: 609 m

Observación

El informe se hizo hace 24 minutos, a las 01:56 UTC
Viento 6 kt del norte-noreste
Temperatura 22°C
Humedad 57%
Presión 1021 hPa
Visibilidad: 16.1 km
Escasas nubes a una altura de 10000 ft

METAR: KHYS 290156Z AUTO 02006KT 10SM FEW100 22/13 A3015 RMK AO2 SLP198 T02170128

Hora: 21:20 (02:20 UTC)

Pronóstico

El informe se hizo hace 3 horas y 0 minutos, a las 23:20 UTC
Pronóstico válido del 29 a las 00 UTC al 29 a las 24 UTC
Viento 6 kt del norte-noreste
Visibilidad: 10 km
Nubes dispersas a una altura de 7000 ft
A partir de las 29 a las 1900 UTC
Viento 12 kt del sur-sureste
Visibilidad: 10 km
Nubes dispersas a una altura de 5000 ft

TAF: KHYS 282320Z 2900/2924 03006KT P6SM SCT070 FM291900 15012KT P6SM SCT050

Observaciones y pronósticos meteorológicos de más de 4000 aeropuertos (mensajes METAR y TAF).

Los puntos amarillos y rojos representan las estaciones disponibles.

Ponga el ratón en el punto deseado para ver el nombre de la estación.

Haga clic para ver las observaciones y los pronósticos meteorológicos.

Para cambiar el mapa : haga clic en los botones verdes con una cruz de color negro para hacer un zoom, en el botón verde con un guión para alejar o en las flechas verdes para mapas adyacentes.


METAR-TAF: